Time;durP1;ratioP1;P1;durP2;ratioP2;P2;SDS_P1;SDS_P2;PMS_P1;PMS_P2;Temp;Humidity;BMP_temperature;BMP_pressure;BME280_temperature;BME280_humidity;BME280_pressure;Samples;Min_cycle;Max_cycle;Signal;HPM_P1;HPM_P2
2022/01/10 00:01:09;;;;;;;54.90;29.07;;;;;;;1.60;78.23;99806.90;1650696;86;20954;-74
2022/01/10 00:03:36;;;;;;;54.93;29.83;;;;;;;1.56;78.25;99803.06;1649691;87;21085;-74
2022/01/10 00:06:03;;;;;;;58.37;30.40;;;;;;;1.58;78.19;99809.92;1651519;86;21007;-76
2022/01/10 00:08:31;;;;;;;52.57;28.47;;;;;;;1.56;78.13;99815.98;1649550;87;21575;-74
2022/01/10 00:10:58;;;;;;;53.53;27.47;;;;;;;1.54;78.32;99815.12;1651104;86;21160;-74
2022/01/10 00:13:25;;;;;;;52.83;27.20;;;;;;;1.53;78.40;99814.72;1651109;86;21087;-74
2022/01/10 00:15:52;;;;;;;48.23;26.50;;;;;;;1.53;78.36;99821.61;1651002;86;21045;-74
2022/01/10 00:18:19;;;;;;;49.80;27.47;;;;;;;1.52;78.39;99822.47;1649857;87;21078;-74
2022/01/10 00:20:46;;;;;;;53.07;27.47;;;;;;;1.50;78.46;99825.08;1651254;86;21103;-74
2022/01/10 00:23:13;;;;;;;53.33;27.47;;;;;;;1.49;78.50;99827.66;1651184;86;21449;-76
2022/01/10 00:25:40;;;;;;;44.67;24.57;;;;;;;1.50;78.52;99830.69;1651294;86;20966;-74
2022/01/10 00:28:07;;;;;;;57.37;29.90;;;;;;;1.48;78.56;99828.10;1651184;86;21033;-74
2022/01/10 00:30:34;;;;;;;63.27;34.67;;;;;;;1.51;78.55;99829.80;1650948;86;21069;-76
2022/01/10 00:33:01;;;;;;;74.07;39.30;;;;;;;1.53;78.62;99840.98;1651319;86;21018;-74
2022/01/10 00:35:28;;;;;;;65.60;35.43;;;;;;;1.52;78.57;99845.70;1651190;86;21151;-73
2022/01/10 00:37:55;;;;;;;64.40;32.97;;;;;;;1.50;78.60;99845.73;1651049;86;21566;-74
2022/01/10 00:40:22;;;;;;;60.00;31.43;;;;;;;1.51;78.66;99857.77;1651270;86;21105;-75
2022/01/10 00:42:54;;;;;;;59.87;32.47;;;;;;;1.50;78.71;99866.41;1651268;86;21015;-74
2022/01/10 00:45:23;;;;;;;63.87;33.53;;;;;;;1.50;78.71;99860.39;1650856;86;21744;-77
2022/01/10 00:47:46;;;;;;;62.93;33.20;;;;;;;1.49;78.71;99867.25;1650692;86;21157;-74
2022/01/10 00:50:15;;;;;;;57.43;29.90;;;;;;;1.48;78.80;99872.01;1650409;86;21413;-75
2022/01/10 00:52:43;;;;;;;60.20;32.10;;;;;;;1.49;78.83;99872.42;1622140;88;21083;-74
2022/01/10 00:55:12;;;;;;;58.57;29.43;;;;;;;1.51;78.91;99878.44;1623377;88;21034;-74
2022/01/10 00:57:39;;;;;;;55.00;29.37;;;;;;;1.51;78.87;99884.89;1650928;86;21058;-74
2022/01/10 01:00:09;;;;;;;54.10;29.03;;;;;;;1.52;78.89;99889.61;1651400;86;21792;-74
2022/01/10 01:02:37;;;;;;;52.27;26.82;;;;;;;1.52;79.01;99887.92;1651512;86;28301;-74
2022/01/10 01:05:09;;;;;;;56.53;29.47;;;;;;;1.53;79.07;99894.78;1649879;87;21066;-73
2022/01/10 01:07:38;;;;;;;65.03;34.47;;;;;;;1.54;79.15;99894.34;1651315;86;21124;-75
2022/01/10 01:12:54;;;;;;;75.90;35.73;;;;;;;1.57;79.23;99896.89;1627170;86;21173;-74
2022/01/10 01:15:23;;;;;;;65.30;34.03;;;;;;;1.57;79.30;99896.89;1650431;86;21688;-72
2022/01/10 01:18:55;;;;;;;70.87;36.20;;;;;;;1.59;79.37;99900.33;1623350;88;21054;-76
2022/01/10 01:20:30;;;;;;;71.67;36.00;;;;;;;1.60;79.42;99902.03;1623170;88;21071;-74
2022/01/10 01:25:34;;;;;;;70.00;34.90;;;;;;;1.59;79.34;99911.10;1650941;86;21169;-75
2022/01/10 01:28:01;;;;;;;69.70;33.37;;;;;;;1.56;79.41;99910.69;1651167;86;21013;-73
2022/01/10 01:30:28;;;;;;;69.70;33.67;;;;;;;1.59;79.48;99920.14;1649299;86;21174;-73
2022/01/10 01:32:55;;;;;;;62.47;33.33;;;;;;;1.58;79.43;99921.88;1640907;87;21035;-76
2022/01/10 01:35:24;;;;;;;68.70;33.13;;;;;;;1.59;79.47;99927.89;1640721;87;21050;-73
2022/01/10 01:37:51;;;;;;;69.47;34.17;;;;;;;1.58;79.51;99930.92;1640765;87;21139;-73
2022/01/10 01:40:20;;;;;;;76.13;36.63;;;;;;;1.56;79.42;99931.36;1640656;87;20947;-73
2022/01/10 01:42:47;;;;;;;65.77;34.00;;;;;;;1.55;79.53;99938.25;1640770;87;21074;-72
2022/01/10 01:45:15;;;;;;;67.63;34.50;;;;;;;1.56;79.51;99939.95;1640649;87;21582;-73
2022/01/10 01:47:43;;;;;;;68.63;35.43;;;;;;;1.55;79.53;99942.54;1577959;91;21113;-73
2022/01/10 01:50:18;;;;;;;66.43;35.53;;;;;;;1.54;79.56;99946.85;1625975;87;21271;-73
2022/01/10 01:52:45;;;;;;;68.43;36.07;;;;;;;1.52;79.59;99947.73;1640639;87;21044;-73
2022/01/10 01:55:12;;;;;;;76.00;38.43;;;;;;;1.52;79.67;99949.91;1640686;87;21170;-73
2022/01/10 01:57:39;;;;;;;75.33;37.70;;;;;;;1.52;79.65;99955.07;1640774;87;21463;-73
2022/01/10 02:00:08;;;;;;;70.27;35.47;;;;;;;1.52;79.64;99956.36;1640679;87;21069;-73
2022/01/10 02:02:37;;;;;;;68.00;33.63;;;;;;;1.53;79.71;99958.50;1613058;89;21154;-75
2022/01/10 02:05:07;;;;;;;66.17;33.03;;;;;;;1.54;79.75;99964.94;1613174;89;21065;-74
2022/01/10 02:07:34;;;;;;;69.92;33.95;;;;;;;1.56;79.73;99967.08;1630708;87;21312;-73
2022/01/10 02:10:07;;;;;;;60.77;31.67;;;;;;;1.56;79.74;99965.79;1640633;87;21489;-75
2022/01/10 02:12:34;;;;;;;72.97;33.50;;;;;;;1.56;79.77;99968.38;1640830;87;21543;-74
2022/01/10 02:15:03;;;;;;;64.20;32.40;;;;;;;1.56;79.78;99973.53;1639076;87;21101;-74
2022/01/10 02:17:36;;;;;;;64.17;32.33;;;;;;;1.55;79.73;99976.12;1612522;88;21066;-73
2022/01/10 02:20:07;;;;;;;68.23;34.10;;;;;;;1.54;79.77;99977.84;1639794;87;21100;-73
2022/01/10 02:22:36;;;;;;;65.67;34.38;;;;;;;1.55;79.88;99973.13;1621277;87;21154;-74
2022/01/10 02:25:07;;;;;;;66.70;34.70;;;;;;;1.53;79.87;99980.45;1623859;87;21485;-73
2022/01/10 02:27:35;;;;;;;67.12;33.58;;;;;;;1.53;80.04;99983.05;1640358;87;22181;-73
2022/01/10 02:30:04;;;;;;;65.60;34.03;;;;;;;1.52;80.03;99982.59;1602956;89;21092;-76
2022/01/10 02:32:34;;;;;;;65.83;33.97;;;;;;;1.49;80.05;99986.50;1640724;86;21027;-73
2022/01/10 02:35:01;;;;;;;59.00;32.63;;;;;;;1.48;80.12;99989.96;1640938;87;21080;-73
2022/01/10 02:37:34;;;;;;;56.37;29.13;;;;;;;1.48;80.16;99997.27;1640828;87;21079;-74
2022/01/10 02:40:09;;;;;;;59.77;29.97;;;;;;;1.48;80.21;99997.70;1640614;87;21162;-73
2022/01/10 02:42:36;;;;;;;60.83;30.97;;;;;;;1.47;80.24;100006.30;1640776;87;20974;-75
2022/01/10 02:45:05;;;;;;;61.63;31.57;;;;;;;1.49;80.39;100008.45;1640956;87;21074;-74
2022/01/10 02:47:32;;;;;;;62.57;31.00;;;;;;;1.53;80.40;100016.63;1639844;87;21056;-73
2022/01/10 02:50:00;;;;;;;61.67;30.87;;;;;;;1.53;80.38;100021.78;1628346;87;21050;-73
2022/01/10 02:52:27;;;;;;;58.67;29.97;;;;;;;1.53;80.34;100021.34;1629922;88;22330;-76
2022/01/10 02:54:55;;;;;;;57.67;30.80;;;;;;;1.53;80.34;100023.93;1643325;87;21062;-74
2022/01/10 02:57:22;;;;;;;65.77;33.23;;;;;;;1.56;80.40;100038.11;1640780;87;21037;-74
2022/01/10 02:59:49;;;;;;;64.90;32.13;;;;;;;1.55;80.47;100041.58;1640958;87;21047;-74
2022/01/10 03:02:23;;;;;;;61.03;33.40;;;;;;;1.57;80.56;100042.84;1640627;87;21886;-74
2022/01/10 03:04:50;;;;;;;61.90;33.43;;;;;;;1.55;80.58;100042.87;1641056;87;21280;-73
2022/01/10 03:07:18;;;;;;;59.97;33.17;;;;;;;1.59;80.63;100055.32;1640609;87;21088;-74
2022/01/10 03:09:45;;;;;;;68.27;35.17;;;;;;;1.60;80.58;100059.61;1640992;86;21036;-73
2022/01/10 03:12:12;;;;;;;64.97;34.17;;;;;;;1.57;80.45;100058.34;1641671;86;21066;-73
2022/01/10 03:14:40;;;;;;;63.37;32.87;;;;;;;1.56;80.50;100065.23;1640731;87;21117;-73
2022/01/10 03:17:08;;;;;;;60.53;30.97;;;;;;;1.55;80.56;100069.98;1640575;87;21146;-73
2022/01/10 03:19:37;;;;;;;55.60;29.37;;;;;;;1.57;80.56;100071.25;1640765;87;21063;-73
2022/01/10 03:22:05;;;;;;;61.23;30.67;;;;;;;1.60;80.54;100073.81;1640596;87;21058;-73
2022/01/10 03:24:34;;;;;;;61.03;31.17;;;;;;;1.62;80.55;100077.70;1640328;87;21054;-73
2022/01/10 03:27:01;;;;;;;62.27;33.80;;;;;;;1.64;80.57;100085.02;1640560;87;21053;-74
2022/01/10 03:29:29;;;;;;;61.30;31.37;;;;;;;1.67;80.58;100084.55;1640725;87;21147;-73
2022/01/10 03:31:56;;;;;;;60.73;31.97;;;;;;;1.71;80.66;100088.81;1645321;86;21549;-75
2022/01/10 03:34:23;;;;;;;61.23;33.40;;;;;;;1.75;80.64;100093.12;1651049;86;21100;-74
2022/01/10 03:36:49;;;;;;;65.50;33.10;;;;;;;1.76;80.55;100098.70;1651042;86;21376;-76
2022/01/10 03:39:16;;;;;;;60.67;34.03;;;;;;;1.75;80.61;100097.44;1650773;86;21046;-73
2022/01/10 03:41:43;;;;;;;59.77;32.80;;;;;;;1.73;80.69;100103.89;1651093;86;21135;-73
2022/01/10 03:44:11;;;;;;;66.00;33.73;;;;;;;1.72;80.74;100106.50;1651091;86;20941;-74
2022/01/10 03:46:38;;;;;;;62.10;31.97;;;;;;;1.69;80.72;100110.36;1651043;86;21029;-73
2022/01/10 03:49:06;;;;;;;63.43;33.93;;;;;;;1.68;80.82;100120.28;1651463;86;21029;-75
2022/01/10 03:51:33;;;;;;;67.37;35.80;;;;;;;1.70;80.88;100120.70;1650831;86;21091;-74
2022/01/10 03:54:00;;;;;;;61.20;32.83;;;;;;;1.71;80.91;100124.14;1650100;87;21123;-73
2022/01/10 03:56:30;;;;;;;67.33;33.60;;;;;;;1.73;81.03;100130.16;1651174;86;21072;-74
2022/01/10 03:58:58;;;;;;;63.50;32.70;;;;;;;1.73;80.92;100135.34;1651263;86;21064;-75
2022/01/10 04:01:25;;;;;;;62.43;31.27;;;;;;;1.75;81.06;100137.05;1651095;86;21098;-73
2022/01/10 04:03:54;;;;;;;65.37;34.57;;;;;;;1.78;81.15;100147.36;1651153;86;21542;-74
2022/01/10 04:06:21;;;;;;;64.50;34.33;;;;;;;1.82;81.20;100156.39;1651387;86;21214;-73
2022/01/10 04:08:50;;;;;;;63.83;34.30;;;;;;;1.81;81.24;100154.24;1651300;86;21009;-74
2022/01/10 04:11:17;;;;;;;61.10;30.93;;;;;;;1.82;81.19;100162.84;1651081;86;21036;-73
2022/01/10 04:13:44;;;;;;;59.93;30.40;;;;;;;1.83;81.45;100164.55;1651272;86;21048;-73
2022/01/10 04:16:11;;;;;;;61.97;30.70;;;;;;;1.83;81.57;100162.86;1624780;88;21026;-77
2022/01/10 04:18:39;;;;;;;59.37;30.13;;;;;;;1.85;81.66;100161.53;1643177;85;21096;-73
2022/01/10 04:21:05;;;;;;;60.10;31.93;;;;;;;1.87;81.71;100166.27;1678985;85;21106;-74
2022/01/10 04:23:33;;;;;;;66.60;33.67;;;;;;;1.88;81.85;100170.56;1668436;85;21046;-73
2022/01/10 04:26:01;;;;;;;63.27;33.80;;;;;;;1.88;82.04;100177.88;1646323;86;21559;-74
2022/01/10 04:28:30;;;;;;;62.77;34.83;;;;;;;1.86;81.98;100179.63;1623593;88;21079;-74
2022/01/10 04:30:57;;;;;;;66.27;36.23;;;;;;;1.82;81.88;100185.66;1653270;85;22398;-74
2022/01/10 04:33:29;;;;;;;73.93;38.93;;;;;;;1.77;81.82;100193.46;1672305;85;21051;-73
2022/01/10 04:35:53;;;;;;;64.17;33.43;;;;;;;1.74;81.93;100195.17;1672272;85;20967;-73
2022/01/10 04:38:19;;;;;;;68.77;34.13;;;;;;;1.72;82.01;100199.08;1672767;85;21090;-73
2022/01/10 04:40:47;;;;;;;63.73;34.40;;;;;;;1.73;81.94;100199.93;1672325;85;21070;-73
2022/01/10 04:43:15;;;;;;;68.60;35.00;;;;;;;1.72;82.01;100204.68;1672354;85;22104;-73
2022/01/10 04:45:42;;;;;;;63.53;34.57;;;;;;;1.69;82.07;100209.42;1672329;85;21333;-77
2022/01/10 04:48:09;;;;;;;67.33;35.97;;;;;;;1.70;82.08;100214.16;1672660;85;21480;-73
2022/01/10 04:53:22;;;;;;;61.47;32.37;;;;;;;1.70;82.24;100218.03;1672609;85;21081;-75
2022/01/10 04:55:50;;;;;;;67.43;34.50;;;;;;;1.68;82.27;100218.02;1672454;85;21978;-73
2022/01/10 04:58:18;;;;;;;66.50;35.60;;;;;;;1.68;82.31;100219.31;1672258;85;20999;-72
2022/01/10 05:00:45;;;;;;;72.67;35.87;;;;;;;1.68;82.32;100225.77;1672692;85;21436;-72
2022/01/10 05:03:13;;;;;;;56.97;32.53;;;;;;;1.66;82.34;100230.08;1672253;85;21011;-73
2022/01/10 05:05:40;;;;;;;70.00;37.50;;;;;;;1.66;82.28;100236.98;1672608;85;21106;-75
2022/01/10 05:08:09;;;;;;;84.57;40.93;;;;;;;1.65;82.38;100240.44;1670942;85;21537;-73
2022/01/10 05:10:36;;;;;;;84.47;43.60;;;;;;;1.63;82.47;100246.03;1651477;86;21046;-75
2022/01/10 05:13:03;;;;;;;91.03;44.00;;;;;;;1.62;82.59;100248.20;1651321;86;21046;-77
2022/01/10 05:15:30;;;;;;;86.60;43.00;;;;;;;1.60;82.62;100252.50;1650140;87;21114;-74
2022/01/10 05:17:57;;;;;;;81.20;40.20;;;;;;;1.59;82.71;100261.13;1651380;86;21030;-72
2022/01/10 05:20:24;;;;;;;80.90;40.57;;;;;;;1.60;82.68;100264.13;1651435;86;21607;-73
2022/01/10 05:22:51;;;;;;;86.87;45.43;;;;;;;1.60;82.61;100270.59;1651045;86;21030;-73
2022/01/10 05:25:18;;;;;;;120.77;71.77;;;;;;;1.59;82.75;100274.05;1651577;86;21081;-73
2022/01/10 05:27:46;;;;;;;154.97;91.60;;;;;;;1.59;82.87;100276.62;1649949;87;21020;-73
2022/01/10 05:30:13;;;;;;;245.13;150.10;;;;;;;1.59;83.04;100280.50;1651408;86;21065;-73
2022/01/10 05:32:42;;;;;;;183.17;106.00;;;;;;;1.57;82.99;100281.78;1646093;86;21144;-73
2022/01/10 05:35:14;;;;;;;170.03;83.57;;;;;;;1.56;83.09;100288.68;1634194;87;22055;-72
2022/01/10 05:37:40;;;;;;;95.53;47.13;;;;;;;1.58;83.16;100293.86;1630220;87;21033;-73
2022/01/10 05:40:09;;;;;;;230.30;102.40;;;;;;;1.57;83.17;100297.28;1622858;88;21072;-72
2022/01/10 05:42:37;;;;;;;116.40;56.63;;;;;;;1.56;83.15;100302.03;1625626;88;21514;-74
2022/01/10 05:45:05;;;;;;;130.47;60.27;;;;;;;1.56;83.21;100307.20;1622863;88;21786;-77
2022/01/10 05:47:41;;;;;;;147.20;66.73;;;;;;;1.58;83.20;100320.09;1603609;88;21535;-73
2022/01/10 05:50:07;;;;;;;119.67;56.30;;;;;;;1.55;83.21;100315.79;1622852;88;21079;-76
2022/01/10 05:52:36;;;;;;;;;;;;;;;1.56;83.17;100327.86;1628074;88;21026;-74
2022/01/10 05:55:05;;;;;;;168.07;73.50;;;;;;;1.56;83.31;100333.03;1622676;88;20498;-74
2022/01/10 05:57:34;;;;;;;126.50;58.63;;;;;;;1.53;83.31;100336.91;1625849;88;21130;-75
2022/01/10 06:00:04;;;;;;;161.93;72.33;;;;;;;1.51;83.30;100345.09;1625624;88;21295;-76
2022/01/10 06:02:33;;;;;;;235.47;97.93;;;;;;;1.50;83.31;100353.71;1625206;88;20943;-73
2022/01/10 06:05:06;;;;;;;198.43;83.03;;;;;;;1.49;83.31;100363.59;1640934;86;21157;-75
2022/01/10 06:07:30;;;;;;;101.90;46.60;;;;;;;1.47;83.26;100362.73;1668195;86;21456;-75
2022/01/10 06:09:58;;;;;;;71.37;34.77;;;;;;;1.49;83.02;100371.34;1658255;86;21153;-75
2022/01/10 06:12:25;;;;;;;97.50;41.50;;;;;;;1.50;82.92;100376.52;1639488;87;21031;-76
2022/01/10 06:14:52;;;;;;;88.37;39.40;;;;;;;1.50;82.89;100379.11;1602749;89;21063;-73
2022/01/10 06:17:19;;;;;;;71.50;35.33;;;;;;;1.50;82.91;100386.86;1640580;87;21016;-72
2022/01/10 06:19:46;;;;;;;68.83;33.03;;;;;;;1.50;82.86;100388.58;1641015;87;21104;-72
2022/01/10 06:22:14;;;;;;;94.83;44.90;;;;;;;1.49;82.80;100388.98;1640761;87;21140;-74
2022/01/10 06:24:41;;;;;;;94.90;43.53;;;;;;;1.50;82.74;100396.33;1609906;88;21058;-71
2022/01/10 06:27:08;;;;;;;82.43;40.83;;;;;;;1.50;82.74;100407.95;1616632;88;21022;-73
2022/01/10 06:29:36;;;;;;;61.67;33.23;;;;;;;1.46;82.69;100407.07;1636490;87;21150;-75
2022/01/10 06:32:05;;;;;;;68.63;36.47;;;;;;;1.44;82.70;100411.40;1641055;87;21048;-73
2022/01/10 06:34:33;;;;;;;90.50;43.40;;;;;;;1.43;82.75;100421.28;1646189;87;21566;-72
2022/01/10 06:37:01;;;;;;;80.30;39.10;;;;;;;1.42;82.64;100426.46;1647695;87;21519;-72
2022/01/10 06:39:30;;;;;;;63.90;33.20;;;;;;;1.39;82.56;100438.08;1650450;86;21043;-71
2022/01/10 06:41:58;;;;;;;58.13;30.63;;;;;;;1.39;82.48;100444.55;1650693;87;21366;-71
2022/01/10 06:44:26;;;;;;;58.87;29.60;;;;;;;1.40;82.40;100446.25;1651207;86;21107;-70
2022/01/10 06:46:54;;;;;;;66.67;33.50;;;;;;;1.40;82.48;100456.58;1650945;86;21857;-71
2022/01/10 06:49:21;;;;;;;61.13;33.70;;;;;;;1.39;82.53;100463.47;1650637;87;21497;-70
2022/01/10 06:51:48;;;;;;;54.63;29.60;;;;;;;1.41;82.55;100472.50;1651050;86;21087;-70
2022/01/10 06:54:15;;;;;;;57.73;31.03;;;;;;;1.40;82.49;100476.80;1650927;87;21063;-72
2022/01/10 06:56:43;;;;;;;72.13;36.77;;;;;;;1.40;82.56;100482.41;1629928;86;21571;-71
2022/01/10 06:59:11;;;;;;;66.57;35.10;;;;;;;1.40;82.59;100497.91;1648451;87;21205;-72
2022/01/10 07:01:40;;;;;;;57.93;33.67;;;;;;;1.37;82.50;100506.51;1648798;86;21344;-73
2022/01/10 07:04:07;;;;;;;64.60;33.50;;;;;;;1.35;82.53;100509.50;1650490;86;21099;-76
2022/01/10 07:06:35;;;;;;;59.70;32.30;;;;;;;1.30;82.41;100514.68;1650608;86;21134;-73
2022/01/10 07:09:03;;;;;;;63.83;34.10;;;;;;;1.29;82.37;100524.99;1649142;85;21023;-72
2022/01/10 07:11:32;;;;;;;56.87;31.07;;;;;;;1.29;82.31;100534.88;1648996;86;21133;-72
2022/01/10 07:13:59;;;;;;;54.20;29.97;;;;;;;1.30;82.23;100540.91;1649357;87;21090;-73
2022/01/10 07:16:26;;;;;;;54.83;30.00;;;;;;;1.28;82.33;100543.94;1649272;86;21089;-72
2022/01/10 07:18:55;;;;;;;55.80;28.77;;;;;;;1.27;82.20;100545.63;1647886;86;21070;-74
2022/01/10 07:21:24;;;;;;;58.43;31.80;;;;;;;1.26;82.22;100556.83;1648700;86;21103;-73
2022/01/10 07:23:51;;;;;;;55.07;31.87;;;;;;;1.25;82.26;100561.57;1649081;87;21536;-72
2022/01/10 07:26:18;;;;;;;58.17;31.53;;;;;;;1.23;82.28;100567.59;1638457;87;21058;-71
2022/01/10 07:28:44;;;;;;;61.37;33.00;;;;;;;1.22;82.35;100569.70;1636251;87;21080;-71
2022/01/10 07:31:12;;;;;;;59.03;30.90;;;;;;;1.22;82.38;100577.45;1651095;87;21487;-72
2022/01/10 07:33:39;;;;;;;52.43;29.17;;;;;;;1.22;82.39;100580.93;1642328;87;21097;-72
2022/01/10 07:36:06;;;;;;;52.23;28.73;;;;;;;1.26;82.12;100584.38;1639544;87;22122;-72
2022/01/10 07:38:37;;;;;;;55.13;29.57;;;;;;;1.27;82.02;100588.23;1624744;87;21070;-72
2022/01/10 07:41:06;;;;;;;50.83;29.40;;;;;;;1.26;81.98;100590.39;1603597;89;21155;-72
2022/01/10 07:43:35;;;;;;;53.60;29.33;;;;;;;1.28;82.12;100598.16;1614409;87;21044;-72
2022/01/10 07:46:05;;;;;;;57.05;30.88;;;;;;;1.27;82.06;100606.75;1624723;86;21488;-73
2022/01/10 07:48:35;;;;;;;54.73;30.57;;;;;;;1.26;82.11;100614.92;1641004;86;21491;-74
2022/01/10 07:51:03;;;;;;;60.13;31.67;;;;;;;1.27;82.26;100620.95;1637714;86;21054;-74
2022/01/10 07:53:30;;;;;;;57.30;31.63;;;;;;;1.28;82.27;100621.41;1634283;86;21089;-74
2022/01/10 07:55:57;;;;;;;61.90;32.77;;;;;;;1.27;82.23;100627.41;1640229;87;21083;-74
2022/01/10 07:58:24;;;;;;;57.40;31.43;;;;;;;1.27;82.27;100630.84;1629666;86;21768;-74
2022/01/10 08:00:51;;;;;;;58.00;29.30;;;;;;;1.30;82.12;100635.16;1648372;86;21205;-74
2022/01/10 08:03:18;;;;;;;47.87;27.13;;;;;;;1.28;82.08;100634.31;1603038;88;21063;-74
2022/01/10 08:05:45;;;;;;;47.70;27.93;;;;;;;1.32;82.09;100643.78;1623254;86;21473;-74
2022/01/10 08:08:12;;;;;;;56.90;27.10;;;;;;;1.36;82.05;100649.82;1642413;86;21607;-74
2022/01/10 08:10:39;;;;;;;51.00;27.43;;;;;;;1.38;82.03;100645.09;1602676;89;21081;-75
2022/01/10 08:13:06;;;;;;;49.03;25.93;;;;;;;1.38;81.92;100657.16;1639108;86;21130;-74
2022/01/10 08:15:33;;;;;;;54.57;29.07;;;;;;;1.40;82.01;100660.18;1640260;87;21039;-74
2022/01/10 08:18:01;;;;;;;55.23;29.03;;;;;;;1.40;81.93;100660.62;1627529;87;21068;-74
2022/01/10 08:20:28;;;;;;;57.63;29.93;;;;;;;1.40;81.96;100672.23;1638008;87;21114;-74
2022/01/10 08:22:55;;;;;;;53.63;30.17;;;;;;;1.39;82.02;100681.71;1611600;88;21100;-75
2022/01/10 08:25:22;;;;;;;58.77;30.27;;;;;;;1.40;81.96;100685.16;1621384;88;21908;-77
2022/01/10 08:27:49;;;;;;;56.07;28.53;;;;;;;1.38;81.98;100690.73;1652613;86;21458;-74
2022/01/10 08:30:17;;;;;;;49.70;26.67;;;;;;;1.38;81.97;100699.34;1645985;86;21096;-75
2022/01/10 08:32:49;;;;;;;48.10;26.20;;;;;;;1.42;81.82;100703.68;1637186;86;21113;-74
2022/01/10 08:35:13;;;;;;;50.00;25.93;;;;;;;1.43;81.73;100707.13;1638212;86;21080;-75
2022/01/10 08:37:40;;;;;;;46.30;26.53;;;;;;;1.43;81.81;100713.58;1645223;86;21126;-75
2022/01/10 08:40:08;;;;;;;51.13;28.70;;;;;;;1.43;81.67;100718.31;1644555;86;21110;-74
2022/01/10 08:42:36;;;;;;;55.47;29.17;;;;;;;1.42;81.82;100723.05;1621445;88;21081;-76
2022/01/10 08:45:04;;;;;;;50.93;28.00;;;;;;;1.44;81.88;100729.50;1649669;86;21050;-76
2022/01/10 08:47:31;;;;;;;56.13;29.10;;;;;;;1.43;81.81;100732.95;1651848;86;21094;-76
2022/01/10 08:49:58;;;;;;;49.20;28.23;;;;;;;1.40;81.82;100736.38;1647579;87;21150;-77
2022/01/10 08:52:25;;;;;;;56.30;29.33;;;;;;;1.41;81.86;100738.52;1651011;86;21016;-75
2022/01/10 08:54:52;;;;;;;57.60;28.87;;;;;;;1.41;81.78;100740.67;1650215;86;21053;-76
2022/01/10 08:57:19;;;;;;;51.03;27.73;;;;;;;1.43;81.81;100744.14;1650812;86;21553;-76
2022/01/10 08:59:46;;;;;;;49.93;27.53;;;;;;;1.45;81.81;100748.03;1650849;86;21122;-77
2022/01/10 09:02:14;;;;;;;48.23;26.77;;;;;;;1.47;81.88;100751.06;1651083;86;21113;-75
2022/01/10 09:04:41;;;;;;;47.03;25.20;;;;;;;1.51;81.84;100754.52;1649563;87;21062;-76
2022/01/10 09:07:09;;;;;;;50.90;25.43;;;;;;;1.52;81.73;100753.66;1650901;86;21080;-73
2022/01/10 09:09:37;;;;;;;49.57;25.70;;;;;;;1.54;81.78;100763.14;1654104;86;21698;-75
2022/01/10 09:12:05;;;;;;;46.17;25.73;;;;;;;1.59;81.79;100764.47;1652257;86;21602;-75
2022/01/10 09:14:32;;;;;;;51.03;26.87;;;;;;;1.61;81.64;100765.75;1622772;88;21327;-74
2022/01/10 09:16:59;;;;;;;51.90;28.07;;;;;;;1.62;81.64;100763.20;1651057;86;21062;-74
2022/01/10 09:19:27;;;;;;;52.10;29.23;;;;;;;1.65;81.66;100775.27;1645026;86;21077;-75
2022/01/10 09:21:54;;;;;;;53.97;30.17;;;;;;;1.66;81.57;100774.40;1649696;87;21142;-74
2022/01/10 09:24:22;;;;;;;53.03;29.20;;;;;;;1.67;81.52;100775.72;1650957;86;21034;-74
2022/01/10 09:26:49;;;;;;;52.57;28.50;;;;;;;1.67;81.39;100773.56;1650545;86;21160;-75
2022/01/10 09:29:16;;;;;;;51.33;28.60;;;;;;;1.68;81.49;100786.48;1647573;86;20964;-72
2022/01/10 09:31:44;;;;;;;52.97;26.97;;;;;;;1.74;81.51;100789.52;1621499;87;21043;-74
2022/01/10 09:34:12;;;;;;;48.60;27.50;;;;;;;1.79;81.35;100790.41;1644499;86;21568;-74
2022/01/10 09:36:42;;;;;;;54.60;27.43;;;;;;;1.84;81.11;100793.89;1642635;86;21049;-75
2022/01/10 09:39:09;;;;;;;50.33;27.77;;;;;;;1.87;81.00;100804.67;1639169;86;22004;-73
2022/01/10 09:41:36;;;;;;;46.00;26.97;;;;;;;1.89;81.06;100814.16;1613087;88;21118;-74
2022/01/10 09:44:06;;;;;;;52.40;30.47;;;;;;;1.93;81.19;100810.73;1603669;88;21379;-74
2022/01/10 09:46:34;;;;;;;54.35;29.42;;;;;;;1.98;81.17;100812.05;1635816;87;26824;-73
2022/01/10 09:49:03;;;;;;;51.90;30.27;;;;;;;1.96;81.01;100809.87;1619635;87;21039;-74
2022/01/10 09:51:32;;;;;;;55.57;30.70;;;;;;;1.97;80.84;100817.66;1625711;87;21124;-73
2022/01/10 09:54:02;;;;;;;51.90;29.93;;;;;;;1.96;80.84;100818.49;1640521;87;21527;-74
2022/01/10 09:56:30;;;;;;;53.50;29.32;;;;;;;1.99;80.86;100818.94;1641126;87;21039;-74
2022/01/10 09:58:59;;;;;;;57.40;27.80;;;;;;;2.06;80.86;100822.00;1639900;87;21075;-74
2022/01/10 10:01:30;;;;;;;51.30;27.97;;;;;;;2.16;80.74;100824.18;1640532;87;21091;-79
2022/01/10 10:03:59;;;;;;;46.63;25.67;;;;;;;2.30;80.52;100835.88;1640006;87;21130;-79
2022/01/10 10:06:28;;;;;;;53.23;28.17;;;;;;;2.36;80.55;100843.69;1640481;87;21078;-75
2022/01/10 10:09:06;;;;;;;54.07;31.20;;;;;;;2.43;80.50;100845.41;1641038;87;21478;-78
2022/01/10 10:11:48;;;;;;;56.43;31.67;;;;;;;2.49;80.57;100851.03;1603198;88;21615;-80
2022/01/10 10:14:18;;;;;;;64.10;32.23;;;;;;;2.56;80.60;100854.09;1634681;87;21311;-76
2022/01/10 10:16:50;;;;;;;61.23;32.93;;;;;;;2.61;80.53;100858.42;1644185;87;21160;-75
2022/01/10 10:19:27;;;;;;;57.80;31.87;;;;;;;2.71;80.50;100862.31;1632461;86;21716;-76
2022/01/10 10:21:57;;;;;;;54.20;31.40;;;;;;;2.81;80.34;100866.66;1627091;87;21613;-75
2022/01/10 10:24:25;;;;;;;58.30;33.20;;;;;;;2.87;80.06;100879.18;1610823;88;21088;-76
2022/01/10 10:26:53;;;;;;;58.50;32.53;;;;;;;2.96;79.99;100874.88;1623305;87;21078;-76
2022/01/10 10:29:20;;;;;;;59.00;33.47;;;;;;;3.07;79.90;100880.94;1604025;88;21113;-76
2022/01/10 10:31:51;;;;;;;58.30;33.50;;;;;;;3.15;79.82;100880.52;1623416;87;21783;-77
2022/01/10 10:34:23;;;;;;;59.63;33.73;;;;;;;3.22;79.63;100892.62;1625473;86;21109;-77
2022/01/10 10:37:09;;;;;;;54.97;31.07;;;;;;;3.28;79.48;100906.88;1627676;87;21161;-76
2022/01/10 10:39:40;;;;;;;59.50;30.33;;;;;;;3.35;79.25;100907.73;1635864;87;21492;-75
2022/01/10 10:42:11;;;;;;;51.70;29.97;;;;;;;3.44;79.13;100905.61;1630345;87;21185;-75
2022/01/10 10:44:41;;;;;;;52.47;29.73;;;;;;;3.49;78.91;100912.52;1631563;86;21017;-75
2022/01/10 10:47:12;;;;;;;58.35;33.18;;;;;;;3.52;78.91;100915.51;1629552;86;21074;-75
2022/01/10 10:49:45;;;;;;;63.77;35.30;;;;;;;3.55;78.84;100920.28;1645227;86;21022;-75
2022/01/10 10:52:11;;;;;;;61.43;34.57;;;;;;;3.59;78.70;100923.73;1637734;86;21126;-76
2022/01/10 10:54:39;;;;;;;60.97;34.33;;;;;;;3.63;78.63;100925.88;1638496;87;21122;-74
2022/01/10 10:57:10;;;;;;;62.47;34.27;;;;;;;3.69;78.69;100925.91;1632416;86;21572;-74
2022/01/10 10:59:40;;;;;;;;;;;;;;;3.74;78.44;100927.63;1636282;87;21079;-75
2022/01/10 11:02:06;;;;;;;63.00;35.87;;;;;;;3.74;78.11;100926.73;1629083;87;20535;-75
2022/01/10 11:04:32;;;;;;;64.67;37.13;;;;;;;3.70;77.98;100934.96;1631629;87;21114;-75
2022/01/10 11:07:00;;;;;;;66.73;38.20;;;;;;;3.70;78.02;100936.70;1634263;86;21132;-76
2022/01/10 11:09:28;;;;;;;63.93;37.40;;;;;;;3.70;78.00;100937.55;1635396;86;21116;-75
2022/01/10 11:11:56;;;;;;;63.17;37.33;;;;;;;3.71;78.01;100941.00;1621413;87;21055;-76
2022/01/10 11:14:24;;;;;;;61.47;36.17;;;;;;;3.77;78.03;100942.33;1636208;86;21132;-77
2022/01/10 11:16:54;;;;;;;62.43;35.90;;;;;;;3.80;77.90;100952.25;1630621;85;21070;-76
2022/01/10 11:19:27;;;;;;;61.00;34.88;;;;;;;3.84;77.78;100964.77;1636770;86;21297;-74
2022/01/10 11:22:04;;;;;;;60.43;33.30;;;;;;;3.94;77.61;100964.35;1640987;87;21041;-76
2022/01/10 11:24:54;;;;;;;63.07;37.53;;;;;;;4.02;77.60;100966.51;1632461;87;21626;-74
2022/01/10 11:27:37;;;;;;;60.27;37.07;;;;;;;4.02;77.18;100963.91;1631570;86;21054;-75
2022/01/10 11:30:38;;;;;;;66.83;39.20;;;;;;;3.95;77.08;100974.70;1635148;86;21126;-75
2022/01/10 11:33:14;;;;;;;72.13;40.00;;;;;;;3.90;77.00;100982.06;1627991;87;21741;-75